Time;durP1;ratioP1;P1;durP2;ratioP2;P2;SDS_P1;SDS_P2;PMS_P1;PMS_P2;Temp;Humidity;BMP_temperature;BMP_pressure;BME280_temperature;BME280_humidity;BME280_pressure;Samples;Min_cycle;Max_cycle;Signal;HPM_P1;HPM_P2
2023/05/18 00:02:17;;;;;;;73.35;27.55;;;;;;;;;;5019070;28;20045;-68
2023/05/18 00:04:42;;;;;;;67.63;22.63;;;;;;;;;;5019694;28;20170;-67
2023/05/18 00:07:08;;;;;;;67.75;21.58;;;;;;;;;;5019962;28;20494;-67
2023/05/18 00:09:35;;;;;;;51.58;16.67;;;;;;;;;;5007998;28;20064;-67
2023/05/18 00:12:02;;;;;;;11.48;5.03;;;;;;;;;;5019704;28;20457;-66
2023/05/18 00:14:27;;;;;;;9.13;4.78;;;;;;;;;;5034477;28;20506;-67
2023/05/18 00:16:53;;;;;;;12.40;4.40;;;;;;;;;;5019831;28;20045;-67
2023/05/18 00:19:20;;;;;;;11.00;5.13;;;;;;;;;;5019203;28;20087;-67
2023/05/18 00:21:47;;;;;;;10.45;5.10;;;;;;;;;;5022381;28;20045;-67
2023/05/18 00:24:13;;;;;;;10.00;4.80;;;;;;;;;;5021226;28;20041;-66
2023/05/18 00:26:40;;;;;;;7.18;4.32;;;;;;;;;;5023627;28;20160;-66
2023/05/18 00:29:07;;;;;;;10.02;4.70;;;;;;;;;;5023268;28;20034;-71
2023/05/18 00:31:35;;;;;;;11.75;4.65;;;;;;;;;;5022195;28;20090;-68
2023/05/18 00:34:04;;;;;;;7.13;4.50;;;;;;;;;;5023266;28;20053;-67
2023/05/18 00:36:30;;;;;;;10.55;4.20;;;;;;;;;;5037897;28;20418;-67
2023/05/18 00:38:57;;;;;;;7.10;4.45;;;;;;;;;;5017740;28;20049;-66
2023/05/18 00:41:22;;;;;;;8.30;4.63;;;;;;;;;;5020351;28;20160;-65
2023/05/18 00:43:48;;;;;;;8.90;4.65;;;;;;;;;;5022688;28;20045;-66
2023/05/18 00:46:13;;;;;;;6.70;4.50;;;;;;;;;;5037699;28;20052;-67
2023/05/18 00:48:39;;;;;;;7.70;4.53;;;;;;;;;;5018254;28;20049;-68
2023/05/18 00:51:05;;;;;;;10.57;4.43;;;;;;;;;;5037925;28;20104;-66
2023/05/18 00:53:34;;;;;;;11.32;4.28;;;;;;;;;;5021990;28;20088;-68
2023/05/18 00:56:00;;;;;;;8.90;4.32;;;;;;;;;;5019354;28;20684;-67
2023/05/18 00:58:26;;;;;;;8.32;4.55;;;;;;;;;;5037347;28;20083;-67
2023/05/18 01:00:52;;;;;;;9.52;5.05;;;;;;;;;;5021744;28;20049;-67
2023/05/18 01:03:20;;;;;;;15.48;5.60;;;;;;;;;;5019279;28;20069;-68
2023/05/18 01:05:54;;;;;;;11.80;5.43;;;;;;;;;;5021017;28;20168;-68
2023/05/18 01:08:25;;;;;;;10.23;5.40;;;;;;;;;;5019794;28;20049;-69
2023/05/18 01:11:04;;;;;;;11.02;5.07;;;;;;;;;;5022601;28;20803;-67
2023/05/18 01:14:00;;;;;;;10.60;5.40;;;;;;;;;;5021518;28;20076;-68
2023/05/18 01:16:33;;;;;;;16.40;5.57;;;;;;;;;;5018607;28;20057;-68
2023/05/18 01:19:12;;;;;;;11.10;6.00;;;;;;;;;;5019266;28;20513;-68
2023/05/18 01:22:04;;;;;;;14.60;6.22;;;;;;;;;;5020538;28;20049;-68
2023/05/18 01:24:33;;;;;;;11.25;6.25;;;;;;;;;;5014807;28;20041;-67
2023/05/18 01:26:59;;;;;;;11.63;5.55;;;;;;;;;;5016524;28;20058;-68
2023/05/18 01:29:27;;;;;;;11.90;5.72;;;;;;;;;;5036703;28;20140;-67
2023/05/18 01:31:53;;;;;;;11.60;6.45;;;;;;;;;;5010662;28;20088;-68
2023/05/18 01:34:19;;;;;;;15.45;6.13;;;;;;;;;;5036582;28;21042;-66
2023/05/18 01:36:45;;;;;;;8.77;6.15;;;;;;;;;;5014295;28;20055;-67
2023/05/18 01:39:10;;;;;;;16.00;7.07;;;;;;;;;;5021183;28;20069;-67
2023/05/18 01:41:40;;;;;;;14.23;7.03;;;;;;;;;;5037026;28;20541;-66
2023/05/18 01:44:23;;;;;;;12.52;6.50;;;;;;;;;;5036805;28;20046;-68
2023/05/18 01:47:11;;;;;;;14.57;6.90;;;;;;;;;;5026807;28;20081;-66
2023/05/18 01:49:52;;;;;;;16.90;7.63;;;;;;;;;;5034907;28;20056;-67
2023/05/18 01:52:23;;;;;;;12.20;7.45;;;;;;;;;;5020078;28;20155;-65
2023/05/18 01:54:53;;;;;;;11.98;8.10;;;;;;;;;;5016150;28;20045;-66
2023/05/18 01:57:22;;;;;;;12.73;8.10;;;;;;;;;;5036967;28;20103;-66
2023/05/18 01:59:50;;;;;;;16.35;8.20;;;;;;;;;;5036680;28;20045;-68
2023/05/18 02:02:16;;;;;;;12.65;8.25;;;;;;;;;;5035916;28;20087;-68
2023/05/18 02:04:41;;;;;;;12.27;8.63;;;;;;;;;;5036050;28;20710;-68
2023/05/18 02:07:07;;;;;;;12.65;7.65;;;;;;;;;;5020790;28;20087;-68
2023/05/18 02:09:32;;;;;;;12.82;8.82;;;;;;;;;;5019962;28;20073;-67
2023/05/18 02:11:58;;;;;;;16.00;8.07;;;;;;;;;;5011512;28;20045;-67
2023/05/18 02:14:24;;;;;;;14.13;8.93;;;;;;;;;;5035501;28;20484;-69
2023/05/18 02:16:51;;;;;;;13.45;9.23;;;;;;;;;;5020104;28;20991;-66
2023/05/18 02:19:19;;;;;;;18.98;9.90;;;;;;;;;;5030834;28;20045;-68
2023/05/18 02:21:45;;;;;;;16.83;9.15;;;;;;;;;;5019804;28;20041;-68
2023/05/18 02:24:11;;;;;;;14.05;9.27;;;;;;;;;;5018204;28;20068;-67
2023/05/18 02:26:37;;;;;;;17.55;10.07;;;;;;;;;;5021166;28;20132;-67
2023/05/18 02:29:05;;;;;;;16.80;9.80;;;;;;;;;;5021262;28;20160;-67
2023/05/18 02:31:31;;;;;;;14.55;10.30;;;;;;;;;;5036592;28;20144;-68
2023/05/18 02:33:56;;;;;;;19.27;10.13;;;;;;;;;;5019734;28;20107;-68
2023/05/18 02:36:22;;;;;;;21.70;10.95;;;;;;;;;;5017772;28;20053;-67
2023/05/18 02:38:48;;;;;;;18.02;9.98;;;;;;;;;;5016422;28;20064;-67
2023/05/18 02:41:13;;;;;;;22.25;10.95;;;;;;;;;;5036206;28;20041;-67
2023/05/18 02:43:39;;;;;;;20.00;9.88;;;;;;;;;;5018162;28;20473;-68
2023/05/18 02:46:06;;;;;;;17.60;11.20;;;;;;;;;;5034924;28;20049;-68
2023/05/18 02:48:32;;;;;;;18.73;11.85;;;;;;;;;;5035580;28;20069;-67
2023/05/18 02:50:58;;;;;;;21.65;12.40;;;;;;;;;;5036137;28;20126;-68
2023/05/18 02:53:25;;;;;;;24.38;12.02;;;;;;;;;;5036255;28;20125;-66
2023/05/18 02:55:55;;;;;;;20.55;11.15;;;;;;;;;;5014245;28;20054;-68
2023/05/18 02:58:26;;;;;;;23.13;11.63;;;;;;;;;;5018278;28;20057;-68
2023/05/18 03:01:06;;;;;;;23.83;10.68;;;;;;;;;;5014397;28;20060;-69
2023/05/18 03:03:38;;;;;;;23.42;11.70;;;;;;;;;;5035565;28;20045;-68
2023/05/18 03:06:04;;;;;;;23.70;12.75;;;;;;;;;;5020416;28;20418;-68
2023/05/18 03:08:30;;;;;;;21.77;12.05;;;;;;;;;;5017550;28;20064;-68
2023/05/18 03:10:59;;;;;;;17.00;10.57;;;;;;;;;;5035607;28;20065;-68
2023/05/18 03:13:25;;;;;;;18.75;11.18;;;;;;;;;;5014513;28;20045;-68
2023/05/18 03:15:50;;;;;;;18.25;10.93;;;;;;;;;;5033234;28;20056;-68
2023/05/18 03:18:18;;;;;;;23.40;11.45;;;;;;;;;;5010691;28;20831;-68
2023/05/18 03:20:43;;;;;;;18.40;11.32;;;;;;;;;;5035803;28;20125;-67
2023/05/18 03:23:10;;;;;;;22.27;11.65;;;;;;;;;;5035333;28;20798;-68
2023/05/18 03:25:36;;;;;;;18.35;11.40;;;;;;;;;;5032058;28;20049;-67
2023/05/18 03:28:03;;;;;;;13.15;10.18;;;;;;;;;;5018792;28;20128;-68
2023/05/18 03:30:32;;;;;;;22.92;11.35;;;;;;;;;;5016977;28;20603;-68
2023/05/18 03:33:00;;;;;;;17.98;11.75;;;;;;;;;;5018292;28;20474;-68
2023/05/18 03:35:26;;;;;;;17.02;10.77;;;;;;;;;;5008374;28;20576;-68
2023/05/18 03:37:52;;;;;;;15.80;10.57;;;;;;;;;;5012745;28;20046;-67
2023/05/18 03:40:18;;;;;;;14.68;10.18;;;;;;;;;;5013852;28;20053;-66
2023/05/18 03:42:44;;;;;;;13.60;10.52;;;;;;;;;;5018511;28;20045;-69
2023/05/18 03:45:11;;;;;;;15.38;9.60;;;;;;;;;;5012044;28;20045;-67
2023/05/18 03:47:38;;;;;;;16.15;10.43;;;;;;;;;;5018604;28;20124;-67
2023/05/18 03:50:04;;;;;;;16.38;9.63;;;;;;;;;;5017990;28;20041;-68
2023/05/18 03:52:33;;;;;;;14.25;10.05;;;;;;;;;;5016185;28;20045;-67
2023/05/18 03:55:02;;;;;;;16.13;10.00;;;;;;;;;;5033146;28;20060;-67
2023/05/18 03:57:30;;;;;;;21.03;10.17;;;;;;;;;;5017880;28;20103;-67
2023/05/18 03:59:58;;;;;;;11.85;9.27;;;;;;;;;;5038486;28;20042;-67
2023/05/18 04:02:24;;;;;;;19.80;10.68;;;;;;;;;;5034750;28;20044;-68
2023/05/18 04:04:52;;;;;;;19.92;10.43;;;;;;;;;;5021971;28;20088;-68
2023/05/18 04:07:23;;;;;;;14.27;9.98;;;;;;;;;;5019414;28;20091;-68
2023/05/18 04:09:50;;;;;;;21.67;10.73;;;;;;;;;;5038687;28;20045;-68
2023/05/18 04:12:16;;;;;;;15.68;10.00;;;;;;;;;;5016655;28;20044;-68
2023/05/18 04:14:41;;;;;;;15.20;10.50;;;;;;;;;;5009881;28;20046;-69
2023/05/18 04:17:07;;;;;;;15.98;11.05;;;;;;;;;;5020478;28;20524;-69
2023/05/18 04:19:36;;;;;;;15.18;11.32;;;;;;;;;;5017349;28;20049;-68
2023/05/18 04:22:05;;;;;;;20.77;12.05;;;;;;;;;;5013728;28;20165;-68
2023/05/18 04:24:33;;;;;;;14.77;10.95;;;;;;;;;;5010310;28;20058;-68
2023/05/18 04:27:01;;;;;;;19.35;12.50;;;;;;;;;;5035732;28;20050;-69
2023/05/18 04:29:28;;;;;;;26.10;16.40;;;;;;;;;;5021553;28;20045;-69
2023/05/18 04:31:59;;;;;;;18.60;13.82;;;;;;;;;;5018251;28;20123;-68
2023/05/18 04:34:26;;;;;;;20.67;12.02;;;;;;;;;;5016528;28;20080;-69
2023/05/18 04:36:55;;;;;;;16.55;12.30;;;;;;;;;;5035835;28;20041;-68
2023/05/18 04:39:22;;;;;;;19.23;12.02;;;;;;;;;;5015436;28;20045;-69
2023/05/18 04:41:49;;;;;;;18.00;11.52;;;;;;;;;;5020544;28;20045;-70
2023/05/18 04:44:17;;;;;;;18.63;11.90;;;;;;;;;;5017584;28;20096;-71
2023/05/18 04:46:46;;;;;;;17.30;12.40;;;;;;;;;;5019730;28;20041;-68
2023/05/18 04:49:12;;;;;;;17.52;11.00;;;;;;;;;;5037701;28;20049;-71
2023/05/18 04:51:40;;;;;;;17.08;11.35;;;;;;;;;;5037500;28;20065;-68
2023/05/18 04:54:07;;;;;;;17.23;10.63;;;;;;;;;;5036776;28;20045;-69
2023/05/18 04:56:33;;;;;;;12.75;9.48;;;;;;;;;;5035224;28;20140;-68
2023/05/18 04:59:01;;;;;;;15.32;9.55;;;;;;;;;;5020178;28;20042;-69
2023/05/18 05:01:28;;;;;;;13.98;9.75;;;;;;;;;;5020556;28;20505;-68
2023/05/18 05:03:53;;;;;;;12.82;9.00;;;;;;;;;;5013596;28;20053;-69
2023/05/18 05:06:19;;;;;;;12.07;7.63;;;;;;;;;;5020908;28;20074;-70
2023/05/18 05:08:45;;;;;;;10.65;7.72;;;;;;;;;;5017855;28;20037;-69
2023/05/18 05:11:10;;;;;;;14.85;7.25;;;;;;;;;;5033239;28;20057;-69
2023/05/18 05:13:36;;;;;;;8.40;6.32;;;;;;;;;;5016643;28;20052;-69
2023/05/18 05:16:01;;;;;;;7.45;6.03;;;;;;;;;;5009591;28;20053;-68
2023/05/18 05:18:27;;;;;;;6.82;5.53;;;;;;;;;;5012711;28;20046;-68
2023/05/18 05:20:53;;;;;;;6.78;4.85;;;;;;;;;;5011419;28;20049;-68
2023/05/18 05:23:20;;;;;;;7.28;4.85;;;;;;;;;;5032300;28;20043;-69
2023/05/18 05:25:45;;;;;;;5.43;4.35;;;;;;;;;;5034442;28;20034;-68
2023/05/18 05:28:11;;;;;;;5.65;4.57;;;;;;;;;;5018062;28;20081;-69
2023/05/18 05:30:37;;;;;;;7.18;4.43;;;;;;;;;;5016760;28;20262;-69
2023/05/18 05:33:03;;;;;;;8.45;3.88;;;;;;;;;;5009007;28;20045;-69
2023/05/18 05:35:29;;;;;;;6.38;4.03;;;;;;;;;;5035014;28;20045;-68
2023/05/18 05:37:55;;;;;;;7.85;5.00;;;;;;;;;;5009308;28;20046;-69
2023/05/18 05:40:20;;;;;;;8.10;3.92;;;;;;;;;;5031921;28;20475;-69
2023/05/18 05:42:46;;;;;;;7.45;4.32;;;;;;;;;;5014923;28;20056;-69
2023/05/18 05:45:12;;;;;;;5.90;4.13;;;;;;;;;;5013812;28;20033;-69
2023/05/18 05:47:49;;;;;;;10.02;4.85;;;;;;;;;;5033246;28;20079;-69
2023/05/18 05:50:16;;;;;;;6.43;4.47;;;;;;;;;;4991092;28;20046;-69
2023/05/18 05:52:44;;;;;;;5.75;4.50;;;;;;;;;;5028448;28;20383;-69
2023/05/18 05:55:09;;;;;;;7.80;4.82;;;;;;;;;;5019524;28;20095;-70
2023/05/18 05:57:35;;;;;;;5.55;4.38;;;;;;;;;;5034264;28;20037;-68
2023/05/18 06:00:01;;;;;;;7.03;4.30;;;;;;;;;;5017203;28;20700;-69
2023/05/18 06:02:30;;;;;;;9.77;3.33;;;;;;;;;;5032905;28;20053;-69
2023/05/18 06:04:55;;;;;;;7.57;4.20;;;;;;;;;;5016621;28;20160;-69
2023/05/18 06:07:21;;;;;;;12.02;4.30;;;;;;;;;;5034866;28;20631;-69
2023/05/18 06:09:47;;;;;;;6.55;4.18;;;;;;;;;;5012771;28;20037;-69
2023/05/18 06:12:13;;;;;;;12.60;4.68;;;;;;;;;;4990157;28;20105;-69
2023/05/18 06:14:38;;;;;;;8.07;4.13;;;;;;;;;;5030139;28;20727;-68
2023/05/18 06:17:05;;;;;;;5.90;3.88;;;;;;;;;;5032727;28;20568;-68
2023/05/18 06:19:31;;;;;;;6.95;3.80;;;;;;;;;;5027400;28;20054;-68
2023/05/18 06:21:56;;;;;;;6.70;3.78;;;;;;;;;;5010445;28;20045;-68
2023/05/18 06:24:24;;;;;;;8.02;3.60;;;;;;;;;;5015591;28;21141;-69
2023/05/18 06:27:11;;;;;;;10.90;4.30;;;;;;;;;;5014687;28;20143;-69
2023/05/18 06:29:59;;;;;;;5.78;3.85;;;;;;;;;;5013466;28;20046;-70
2023/05/18 06:32:44;;;;;;;8.55;3.85;;;;;;;;;;5048460;28;20056;-69
2023/05/18 06:35:09;;;;;;;7.47;3.45;;;;;;;;;;5016612;28;20049;-68
2023/05/18 06:37:35;;;;;;;10.55;4.10;;;;;;;;;;5008646;28;20510;-68
2023/05/18 06:40:02;;;;;;;9.90;3.97;;;;;;;;;;5028685;28;20103;-68
2023/05/18 06:42:28;;;;;;;9.50;4.30;;;;;;;;;;5017042;28;20049;-68
2023/05/18 06:45:18;;;;;;;5.00;3.38;;;;;;;;;;5016462;28;20061;-67
2023/05/18 06:47:48;;;;;;;7.15;3.55;;;;;;;;;;5015689;28;20049;-70
2023/05/18 06:50:14;;;;;;;8.60;3.95;;;;;;;;;;5033531;28;20060;-67
2023/05/18 06:52:41;;;;;;;10.43;4.13;;;;;;;;;;5033352;28;20050;-67
2023/05/18 06:55:07;;;;;;;9.05;2.88;;;;;;;;;;5032418;28;20047;-68
2023/05/18 06:57:33;;;;;;;8.70;3.38;;;;;;;;;;5029428;28;20371;-68
2023/05/18 06:59:59;;;;;;;7.55;3.65;;;;;;;;;;5031274;28;20047;-67
2023/05/18 07:02:25;;;;;;;10.57;3.35;;;;;;;;;;5013903;28;20033;-67
2023/05/18 07:04:51;;;;;;;5.43;2.42;;;;;;;;;;5013469;28;21053;-67
2023/05/18 07:07:16;;;;;;;10.75;2.85;;;;;;;;;;5016842;28;20045;-69
2023/05/18 07:09:44;;;;;;;6.93;3.00;;;;;;;;;;5007764;28;20049;-68
2023/05/18 07:12:10;;;;;;;6.95;2.72;;;;;;;;;;5014105;28;20053;-68
2023/05/18 07:14:36;;;;;;;11.20;3.35;;;;;;;;;;5008609;28;20089;-67
2023/05/18 07:17:03;;;;;;;18.45;3.08;;;;;;;;;;5015771;28;20049;-69
2023/05/18 07:19:28;;;;;;;11.15;3.20;;;;;;;;;;5011583;28;20506;-69
2023/05/18 07:21:55;;;;;;;12.90;3.00;;;;;;;;;;5011946;28;20081;-69
2023/05/18 07:24:21;;;;;;;9.77;3.92;;;;;;;;;;5015260;28;20601;-68
2023/05/18 07:26:47;;;;;;;7.43;2.88;;;;;;;;;;5014033;28;20042;-69
2023/05/18 07:29:12;;;;;;;11.38;3.20;;;;;;;;;;5019030;28;20045;-73
2023/05/18 07:31:39;;;;;;;5.53;2.80;;;;;;;;;;5023254;28;20038;-73
2023/05/18 07:34:06;;;;;;;5.35;2.65;;;;;;;;;;5021190;28;20084;-74
2023/05/18 07:36:31;;;;;;;11.13;3.92;;;;;;;;;;5011191;28;20149;-69
2023/05/18 07:38:57;;;;;;;8.88;3.92;;;;;;;;;;5023557;28;20050;-74
2023/05/18 07:41:23;;;;;;;5.78;3.33;;;;;;;;;;5022223;28;20056;-70
2023/05/18 07:43:50;;;;;;;8.25;3.30;;;;;;;;;;5016644;28;20049;-71
2023/05/18 07:46:15;;;;;;;6.30;3.05;;;;;;;;;;5022926;28;20552;-74
2023/05/18 07:48:41;;;;;;;6.55;3.17;;;;;;;;;;5023279;28;20045;-74
2023/05/18 07:51:06;;;;;;;7.15;3.15;;;;;;;;;;5024488;28;20460;-70
2023/05/18 07:53:33;;;;;;;7.57;3.30;;;;;;;;;;5023117;28;20056;-70
2023/05/18 07:55:59;;;;;;;8.88;3.03;;;;;;;;;;5023617;28;20514;-69
2023/05/18 07:58:24;;;;;;;11.98;3.55;;;;;;;;;;5023105;28;20044;-70
2023/05/18 08:00:50;;;;;;;9.40;2.90;;;;;;;;;;5022760;28;20045;-71
2023/05/18 08:03:17;;;;;;;10.57;4.10;;;;;;;;;;5023516;28;20577;-70
2023/05/18 08:05:42;;;;;;;7.00;3.35;;;;;;;;;;5022969;28;20386;-72
2023/05/18 08:08:10;;;;;;;9.88;3.08;;;;;;;;;;5024163;28;20045;-73
2023/05/18 08:10:36;;;;;;;10.70;3.15;;;;;;;;;;5024353;28;20053;-71
2023/05/18 08:13:02;;;;;;;5.85;3.22;;;;;;;;;;5039853;28;20100;-70
2023/05/18 08:15:27;;;;;;;6.57;3.20;;;;;;;;;;5018873;28;20525;-73
2023/05/18 08:17:55;;;;;;;8.90;2.88;;;;;;;;;;5012491;28;20142;-72
2023/05/18 08:20:22;;;;;;;13.73;3.13;;;;;;;;;;5014078;28;20062;-70
2023/05/18 08:22:47;;;;;;;7.15;2.97;;;;;;;;;;5013569;28;20049;-74
2023/05/18 08:25:13;;;;;;;4.80;2.50;;;;;;;;;;5024010;28;20049;-71
2023/05/18 08:27:38;;;;;;;11.82;3.50;;;;;;;;;;5025551;28;20048;-70
2023/05/18 08:30:04;;;;;;;6.18;2.70;;;;;;;;;;5025579;28;20053;-70
2023/05/18 08:32:30;;;;;;;6.82;3.72;;;;;;;;;;5019574;28;20042;-70
2023/05/18 08:34:56;;;;;;;8.90;3.60;;;;;;;;;;5024052;28;20048;-71
2023/05/18 08:37:27;;;;;;;6.85;3.00;;;;;;;;;;5019140;28;20264;-70
2023/05/18 08:39:53;;;;;;;11.77;3.28;;;;;;;;;;5025440;28;20046;-70
2023/05/18 08:42:23;;;;;;;6.20;2.97;;;;;;;;;;5021062;28;20037;-72
2023/05/18 08:44:51;;;;;;;4.90;2.60;;;;;;;;;;5022184;28;20554;-71
2023/05/18 08:47:18;;;;;;;7.38;2.95;;;;;;;;;;5020259;28;20053;-72
2023/05/18 08:49:45;;;;;;;6.65;3.20;;;;;;;;;;5018556;28;20058;-70
2023/05/18 08:52:17;;;;;;;8.13;3.38;;;;;;;;;;5021934;28;20041;-74
2023/05/18 08:54:43;;;;;;;4.00;3.03;;;;;;;;;;5035905;28;20056;-73
2023/05/18 08:57:10;;;;;;;9.50;3.88;;;;;;;;;;5022125;28;20088;-70
2023/05/18 08:59:40;;;;;;;3.83;2.55;;;;;;;;;;5020730;28;20134;-71
2023/05/18 09:02:05;;;;;;;5.88;3.35;;;;;;;;;;5020586;28;20545;-71
2023/05/18 09:04:33;;;;;;;7.00;3.08;;;;;;;;;;5021555;28;20053;-68
2023/05/18 09:07:01;;;;;;;10.07;3.30;;;;;;;;;;5037005;28;20046;-71
2023/05/18 09:09:27;;;;;;;8.63;3.97;;;;;;;;;;5019811;28;20830;-69
2023/05/18 09:11:55;;;;;;;5.95;3.13;;;;;;;;;;5037258;28;20052;-72
2023/05/18 09:14:24;;;;;;;6.10;3.47;;;;;;;;;;5021724;28;20037;-70
2023/05/18 09:16:53;;;;;;;7.65;3.20;;;;;;;;;;5037267;28;20095;-74
2023/05/18 09:19:19;;;;;;;10.43;2.97;;;;;;;;;;5020567;28;20056;-73
2023/05/18 09:21:45;;;;;;;8.55;3.47;;;;;;;;;;5020969;28;20525;-76
2023/05/18 09:24:10;;;;;;;11.35;3.03;;;;;;;;;;5021305;28;20052;-75
2023/05/18 09:26:37;;;;;;;8.27;2.90;;;;;;;;;;5021234;28;20049;-72
2023/05/18 09:29:17;;;;;;;9.85;3.17;;;;;;;;;;5021928;28;20053;-71
2023/05/18 09:31:45;;;;;;;8.60;3.33;;;;;;;;;;5021549;28;20056;-72
2023/05/18 09:34:11;;;;;;;6.95;3.05;;;;;;;;;;5021073;28;20077;-75
2023/05/18 09:36:37;;;;;;;9.55;3.20;;;;;;;;;;5021344;28;20072;-76
2023/05/18 09:39:08;;;;;;;8.75;2.90;;;;;;;;;;5021594;28;20502;-70
2023/05/18 09:41:37;;;;;;;6.40;3.40;;;;;;;;;;5020458;28;20079;-76
2023/05/18 09:44:07;;;;;;;8.82;3.33;;;;;;;;;;5015859;28;20049;-73
2023/05/18 09:46:38;;;;;;;15.38;3.72;;;;;;;;;;5021298;28;20053;-72
2023/05/18 09:49:05;;;;;;;5.05;2.63;;;;;;;;;;5021652;28;20276;-73
2023/05/18 09:51:33;;;;;;;9.18;3.28;;;;;;;;;;5022061;28;20049;-69
2023/05/18 09:53:59;;;;;;;5.13;2.55;;;;;;;;;;5009980;28;20041;-68
2023/05/18 09:56:26;;;;;;;3.20;2.05;;;;;;;;;;5010639;28;20060;-69
2023/05/18 09:58:52;;;;;;;7.88;2.33;;;;;;;;;;5008461;28;20069;-69
2023/05/18 10:01:18;;;;;;;7.43;2.88;;;;;;;;;;5017824;28;20041;-68
2023/05/18 10:03:47;;;;;;;5.32;2.63;;;;;;;;;;5017593;28;20065;-69
2023/05/18 10:06:12;;;;;;;7.93;2.60;;;;;;;;;;5014920;28;20042;-69
2023/05/18 10:08:39;;;;;;;6.38;2.70;;;;;;;;;;5021491;28;20934;-69
2023/05/18 10:11:05;;;;;;;6.97;2.70;;;;;;;;;;5019818;28;20112;-70
2023/05/18 10:13:31;;;;;;;8.65;3.17;;;;;;;;;;5036235;28;20049;-69
2023/05/18 10:16:06;;;;;;;7.43;2.58;;;;;;;;;;5018866;28;20050;-70
2023/05/18 10:18:37;;;;;;;11.38;3.10;;;;;;;;;;5006260;28;20061;-69
2023/05/18 10:21:05;;;;;;;8.85;3.30;;;;;;;;;;5017408;28;20049;-69
2023/05/18 10:23:33;;;;;;;7.47;2.92;;;;;;;;;;5020751;28;20475;-68
2023/05/18 10:25:59;;;;;;;6.57;3.00;;;;;;;;;;5020565;28;20125;-69
2023/05/18 10:28:36;;;;;;;6.70;2.75;;;;;;;;;;5014560;28;20484;-69
2023/05/18 10:31:03;;;;;;;5.43;2.65;;;;;;;;;;5020369;28;20574;-69
2023/05/18 10:33:30;;;;;;;8.05;2.40;;;;;;;;;;5006726;28;20056;-69
2023/05/18 10:35:56;;;;;;;8.57;3.33;;;;;;;;;;5015082;28;20050;-70
2023/05/18 10:38:26;;;;;;;6.35;3.00;;;;;;;;;;5014051;28;20048;-69
2023/05/18 10:40:54;;;;;;;4.47;3.30;;;;;;;;;;5008405;28;20419;-70
2023/05/18 10:43:25;;;;;;;5.70;2.60;;;;;;;;;;5013327;28;20103;-70
2023/05/18 10:45:56;;;;;;;6.85;2.88;;;;;;;;;;5017988;28;20291;-70
2023/05/18 10:48:22;;;;;;;7.35;2.83;;;;;;;;;;5008951;28;20175;-70
2023/05/18 10:50:49;;;;;;;6.95;2.45;;;;;;;;;;5014763;28;20491;-69
2023/05/18 10:53:19;;;;;;;11.98;2.90;;;;;;;;;;5017393;28;20041;-70
2023/05/18 10:55:49;;;;;;;9.63;3.00;;;;;;;;;;5016243;28;20069;-70
2023/05/18 10:58:18;;;;;;;4.53;2.85;;;;;;;;;;5015862;28;20491;-70
2023/05/18 11:00:48;;;;;;;3.22;2.50;;;;;;;;;;5015128;28;20061;-70
2023/05/18 11:03:16;;;;;;;8.30;2.92;;;;;;;;;;5012758;28;20160;-70
2023/05/18 11:05:42;;;;;;;5.53;2.90;;;;;;;;;;5011045;28;20053;-70
2023/05/18 11:08:08;;;;;;;6.47;3.10;;;;;;;;;;5011076;28;20056;-70
2023/05/18 11:10:35;;;;;;;6.13;2.90;;;;;;;;;;5014325;28;20057;-67
2023/05/18 11:13:01;;;;;;;6.75;2.78;;;;;;;;;;5010783;28;20076;-68
2023/05/18 11:15:54;;;;;;;7.32;3.08;;;;;;;;;;5014994;28;20076;-70
2023/05/18 11:18:32;;;;;;;3.95;2.50;;;;;;;;;;5016320;28;20600;-68
2023/05/18 11:20:58;;;;;;;6.47;2.88;;;;;;;;;;5016816;28;20049;-69
2023/05/18 11:23:23;;;;;;;7.32;3.00;;;;;;;;;;5013500;28;20050;-69
2023/05/18 11:25:50;;;;;;;5.95;2.97;;;;;;;;;;5010201;28;21141;-69
2023/05/18 11:28:16;;;;;;;6.38;3.00;;;;;;;;;;5017069;28;20489;-69
2023/05/18 11:30:43;;;;;;;5.90;2.90;;;;;;;;;;5012508;28;20065;-68
2023/05/18 11:33:09;;;;;;;5.85;2.72;;;;;;;;;;5008013;28;20081;-70
2023/05/18 11:35:56;;;;;;;3.72;2.45;;;;;;;;;;5007887;28;20053;-70
2023/05/18 11:38:22;;;;;;;7.32;3.20;;;;;;;;;;5018617;28;20049;-69
2023/05/18 11:40:49;;;;;;;5.78;3.30;;;;;;;;;;5015474;28;20088;-70
2023/05/18 11:43:22;;;;;;;6.63;2.95;;;;;;;;;;5014799;28;20581;-69
2023/05/18 11:45:56;;;;;;;9.30;3.42;;;;;;;;;;5010890;28;20038;-69
2023/05/18 11:48:28;;;;;;;5.13;2.90;;;;;;;;;;5014027;28;20045;-70
2023/05/18 11:50:54;;;;;;;8.25;3.00;;;;;;;;;;5015224;28;20045;-69
2023/05/18 11:53:25;;;;;;;5.28;3.03;;;;;;;;;;5011263;28;20060;-70
2023/05/18 11:55:55;;;;;;;6.60;3.33;;;;;;;;;;5004844;28;20149;-70
2023/05/18 11:58:24;;;;;;;6.07;2.83;;;;;;;;;;5011706;28;20929;-71
2023/05/18 12:00:50;;;;;;;3.83;2.47;;;;;;;;;;5015664;28;20102;-70
2023/05/18 12:03:16;;;;;;;5.20;2.53;;;;;;;;;;5011042;28;20042;-71
2023/05/18 12:05:47;;;;;;;6.03;2.88;;;;;;;;;;5017158;28;20045;-71
2023/05/18 12:08:17;;;;;;;4.65;2.35;;;;;;;;;;5017902;28;20049;-72
2023/05/18 12:10:47;;;;;;;7.32;3.05;;;;;;;;;;5016976;28;20072;-70
2023/05/18 12:13:16;;;;;;;5.18;2.60;;;;;;;;;;5010468;28;20463;-70
2023/05/18 12:15:42;;;;;;;4.57;2.60;;;;;;;;;;5017989;28;20076;-71
2023/05/18 12:18:08;;;;;;;6.30;3.40;;;;;;;;;;5013086;28;20109;-70
2023/05/18 12:20:34;;;;;;;6.53;3.08;;;;;;;;;;5021028;28;21464;-70
2023/05/18 12:23:00;;;;;;;5.07;2.97;;;;;;;;;;5037240;28;21175;-71
2023/05/18 12:25:26;;;;;;;6.60;3.00;;;;;;;;;;5021834;28;20075;-69
2023/05/18 12:27:53;;;;;;;4.75;2.90;;;;;;;;;;5021622;28;20049;-68
2023/05/18 12:30:22;;;;;;;4.22;2.65;;;;;;;;;;5021603;28;20052;-70
2023/05/18 12:32:52;;;;;;;5.22;2.75;;;;;;;;;;5018948;28;20053;-70
2023/05/18 12:35:36;;;;;;;5.47;2.45;;;;;;;;;;5019106;28;20041;-70
2023/05/18 12:38:01;;;;;;;7.20;3.22;;;;;;;;;;5019404;28;20092;-69
2023/05/18 12:40:37;;;;;;;5.95;2.83;;;;;;;;;;5021016;28;20081;-69
2023/05/18 12:43:03;;;;;;;8.38;2.70;;;;;;;;;;5011357;28;20061;-68
2023/05/18 12:45:31;;;;;;;6.97;2.78;;;;;;;;;;5018392;28;20050;-70
2023/05/18 12:48:07;;;;;;;6.55;2.67;;;;;;;;;;5020745;28;20785;-70
2023/05/18 12:50:33;;;;;;;5.45;2.97;;;;;;;;;;5021543;28;20937;-69
2023/05/18 12:53:00;;;;;;;3.88;2.53;;;;;;;;;;5022135;28;20061;-70
2023/05/18 12:55:26;;;;;;;3.90;2.53;;;;;;;;;;5015721;28;20523;-70
2023/05/18 12:58:06;;;;;;;5.07;2.60;;;;;;;;;;5011477;28;20104;-70
2023/05/18 13:00:35;;;;;;;4.05;2.55;;;;;;;;;;5016348;28;20049;-71
2023/05/18 13:03:14;;;;;;;6.47;2.50;;;;;;;;;;5020312;28;21020;-71
2023/05/18 13:05:41;;;;;;;8.10;2.70;;;;;;;;;;5014202;28;20060;-71
2023/05/18 13:08:08;;;;;;;6.82;2.72;;;;;;;;;;5019013;28;20069;-70
2023/05/18 13:10:33;;;;;;;5.18;2.90;;;;;;;;;;5020909;28;20061;-70
2023/05/18 13:13:03;;;;;;;8.13;2.90;;;;;;;;;;5015777;28;20056;-71
2023/05/18 13:15:36;;;;;;;7.80;2.58;;;;;;;;;;5021786;28;20406;-70
2023/05/18 13:18:10;;;;;;;2.88;2.08;;;;;;;;;;5010057;28;20520;-70
2023/05/18 13:21:06;;;;;;;4.60;2.47;;;;;;;;;;5021521;28;20156;-70
2023/05/18 13:23:31;;;;;;;6.00;2.45;;;;;;;;;;5010547;28;20049;-69
2023/05/18 13:25:56;;;;;;;2.85;1.90;;;;;;;;;;5013842;28;20041;-68
2023/05/18 13:28:22;;;;;;;5.25;2.50;;;;;;;;;;5012050;28;20046;-68
2023/05/18 13:30:49;;;;;;;6.65;2.42;;;;;;;;;;5012938;28;20046;-67
2023/05/18 13:33:18;;;;;;;3.20;2.17;;;;;;;;;;5020521;28;20057;-69
2023/05/18 13:35:45;;;;;;;3.60;2.00;;;;;;;;;;5011793;28;20548;-69
2023/05/18 13:38:12;;;;;;;3.40;2.08;;;;;;;;;;5012553;28;20509;-68
2023/05/18 13:40:38;;;;;;;2.83;1.77;;;;;;;;;;5013061;28;20517;-69
2023/05/18 13:43:05;;;;;;;4.28;2.20;;;;;;;;;;5010436;28;20522;-69
2023/05/18 13:45:31;;;;;;;3.70;1.90;;;;;;;;;;5015339;28;20486;-68
2023/05/18 13:47:57;;;;;;;2.53;1.45;;;;;;;;;;5011388;28;20057;-68
2023/05/18 13:50:24;;;;;;;2.08;1.48;;;;;;;;;;5010633;28;20141;-69
2023/05/18 13:52:50;;;;;;;2.03;1.42;;;;;;;;;;5013756;28;20045;-70
2023/05/18 13:55:18;;;;;;;1.88;1.55;;;;;;;;;;5011580;28;20086;-71
2023/05/18 13:57:45;;;;;;;3.15;2.00;;;;;;;;;;5011734;28;20408;-70
2023/05/18 14:00:12;;;;;;;3.08;1.98;;;;;;;;;;5013660;28;20667;-67
2023/05/18 14:02:41;;;;;;;4.68;1.77;;;;;;;;;;5013024;28;20049;-68
2023/05/18 14:05:07;;;;;;;6.07;1.83;;;;;;;;;;5012098;28;20049;-69
2023/05/18 14:07:35;;;;;;;11.20;1.90;;;;;;;;;;5011946;28;20049;-69
2023/05/18 14:10:01;;;;;;;2.38;1.90;;;;;;;;;;5012274;28;20050;-67
2023/05/18 14:12:26;;;;;;;5.85;2.00;;;;;;;;;;5030026;28;20101;-67
2023/05/18 14:14:52;;;;;;;1.80;1.48;;;;;;;;;;5019812;28;20056;-67
2023/05/18 14:17:17;;;;;;;2.72;1.70;;;;;;;;;;5019113;28;20055;-67
2023/05/18 14:19:42;;;;;;;2.28;1.55;;;;;;;;;;5021085;28;20045;-67
2023/05/18 14:22:08;;;;;;;3.78;1.60;;;;;;;;;;5019775;28;20578;-67
2023/05/18 14:24:33;;;;;;;6.30;1.08;;;;;;;;;;5020355;28;20054;-67
2023/05/18 14:26:59;;;;;;;1.67;1.50;;;;;;;;;;5020787;28;20629;-67
2023/05/18 14:29:24;;;;;;;2.22;1.42;;;;;;;;;;5015895;28;20042;-67
2023/05/18 14:31:50;;;;;;;5.07;1.30;;;;;;;;;;5029350;28;20428;-68
2023/05/18 14:34:15;;;;;;;1.67;1.20;;;;;;;;;;5010676;28;20050;-68
2023/05/18 14:36:41;;;;;;;1.48;1.30;;;;;;;;;;5011129;28;20618;-68
2023/05/18 14:39:06;;;;;;;2.03;1.38;;;;;;;;;;5012412;28;20045;-68
2023/05/18 14:41:32;;;;;;;2.35;1.80;;;;;;;;;;5009597;28;20048;-68